sensor_id;sensor_type;location;lat;lon;timestamp;pressure;altitude;pressure_sealevel;temperature;humidity
5812;BME280;2932;52.400;9.558;2023-04-22T00:01:16;100471.88;;;18.40;49.32
5812;BME280;2932;52.400;9.558;2023-04-22T00:03:43;100469.50;;;18.42;49.52
5812;BME280;2932;52.400;9.558;2023-04-22T00:06:09;100473.88;;;18.43;49.17
5812;BME280;2932;52.400;9.558;2023-04-22T00:08:35;100468.31;;;18.36;49.38
5812;BME280;2932;52.400;9.558;2023-04-22T00:11:00;100464.31;;;18.37;49.35
5812;BME280;2932;52.400;9.558;2023-04-22T00:13:26;100462.28;;;18.44;49.42
5812;BME280;2932;52.400;9.558;2023-04-22T00:15:51;100456.72;;;18.19;49.47
5812;BME280;2932;52.400;9.558;2023-04-22T00:18:16;100455.94;;;18.15;49.76
5812;BME280;2932;52.400;9.558;2023-04-22T00:20:42;100454.72;;;18.20;50.03
5812;BME280;2932;52.400;9.558;2023-04-22T00:23:08;100451.13;;;18.26;49.46
5812;BME280;2932;52.400;9.558;2023-04-22T00:25:34;100445.13;;;18.21;49.95
5812;BME280;2932;52.400;9.558;2023-04-22T00:27:59;100439.13;;;18.19;49.94
5812;BME280;2932;52.400;9.558;2023-04-22T00:30:25;100436.34;;;18.15;50.14
5812;BME280;2932;52.400;9.558;2023-04-22T00:32:50;100437.16;;;17.91;50.52
5812;BME280;2932;52.400;9.558;2023-04-22T00:35:15;100438.38;;;17.93;50.21
5812;BME280;2932;52.400;9.558;2023-04-22T00:37:41;100439.53;;;18.03;50.46
5812;BME280;2932;52.400;9.558;2023-04-22T00:40:07;100436.34;;;18.01;50.18
5812;BME280;2932;52.400;9.558;2023-04-22T00:42:32;100441.53;;;18.13;50.34
5812;BME280;2932;52.400;9.558;2023-04-22T00:44:59;100436.75;;;18.07;50.33
5812;BME280;2932;52.400;9.558;2023-04-22T00:47:24;100433.94;;;18.17;50.18
5812;BME280;2932;52.400;9.558;2023-04-22T00:49:52;100435.13;;;18.02;50.55
5812;BME280;2932;52.400;9.558;2023-04-22T00:52:17;100440.34;;;18.04;50.39
5812;BME280;2932;52.400;9.558;2023-04-22T00:54:43;100431.94;;;18.11;50.50
5812;BME280;2932;52.400;9.558;2023-04-22T00:57:08;100433.16;;;17.99;50.66
5812;BME280;2932;52.400;9.558;2023-04-22T00:59:34;100437.97;;;17.91;50.90
5812;BME280;2932;52.400;9.558;2023-04-22T01:02:00;100432.78;;;17.93;50.98
5812;BME280;2932;52.400;9.558;2023-04-22T01:04:25;100438.75;;;17.85;50.84
5812;BME280;2932;52.400;9.558;2023-04-22T01:06:52;100441.56;;;17.81;51.05
5812;BME280;2932;52.400;9.558;2023-04-22T01:09:20;100445.56;;;17.98;50.59
5812;BME280;2932;52.400;9.558;2023-04-22T01:11:46;100450.34;;;17.80;51.28
5812;BME280;2932;52.400;9.558;2023-04-22T01:14:12;100447.56;;;17.76;51.42
5812;BME280;2932;52.400;9.558;2023-04-22T01:16:39;100443.94;;;17.69;51.56
5812;BME280;2932;52.400;9.558;2023-04-22T01:19:05;100441.16;;;17.79;51.39
5812;BME280;2932;52.400;9.558;2023-04-22T01:21:31;100436.34;;;17.76;51.82
5812;BME280;2932;52.400;9.558;2023-04-22T01:23:59;100427.94;;;17.55;51.95
5812;BME280;2932;52.400;9.558;2023-04-22T01:26:25;100435.94;;;17.53;51.87
5812;BME280;2932;52.400;9.558;2023-04-22T01:28:50;100431.09;;;17.36;52.18
5812;BME280;2932;52.400;9.558;2023-04-22T01:31:16;100433.91;;;17.39;52.32
5812;BME280;2932;52.400;9.558;2023-04-22T01:33:41;100440.72;;;17.52;52.23
5812;BME280;2932;52.400;9.558;2023-04-22T01:36:06;100430.72;;;17.41;52.30
5812;BME280;2932;52.400;9.558;2023-04-22T01:38:33;100437.53;;;17.50;52.25
5812;BME280;2932;52.400;9.558;2023-04-22T01:41:01;100429.09;;;17.36;52.36
5812;BME280;2932;52.400;9.558;2023-04-22T01:43:28;100432.31;;;17.49;52.15
5812;BME280;2932;52.400;9.558;2023-04-22T01:45:55;100424.75;;;17.56;51.87
5812;BME280;2932;52.400;9.558;2023-04-22T01:48:21;100425.94;;;17.48;52.28
5812;BME280;2932;52.400;9.558;2023-04-22T01:50:46;100426.72;;;17.52;52.27
5812;BME280;2932;52.400;9.558;2023-04-22T01:53:11;100420.31;;;17.41;52.25
5812;BME280;2932;52.400;9.558;2023-04-22T01:55:37;100422.28;;;17.30;52.34
5812;BME280;2932;52.400;9.558;2023-04-22T01:58:03;100423.09;;;17.27;52.57
5812;BME280;2932;52.400;9.558;2023-04-22T02:00:29;100421.09;;;17.27;52.55
5812;BME280;2932;52.400;9.558;2023-04-22T02:02:54;100413.91;;;17.19;52.67
5812;BME280;2932;52.400;9.558;2023-04-22T02:05:20;100418.28;;;17.13;52.92
5812;BME280;2932;52.400;9.558;2023-04-22T02:07:45;100413.47;;;17.10;53.22
5812;BME280;2932;52.400;9.558;2023-04-22T02:10:11;100412.31;;;17.18;53.03
5812;BME280;2932;52.400;9.558;2023-04-22T02:12:36;100417.88;;;17.11;52.97
5812;BME280;2932;52.400;9.558;2023-04-22T02:15:02;100405.88;;;17.04;52.97
5812;BME280;2932;52.400;9.558;2023-04-22T02:17:28;100406.69;;;17.15;53.16
5812;BME280;2932;52.400;9.558;2023-04-22T02:19:53;100401.91;;;17.12;53.26
5812;BME280;2932;52.400;9.558;2023-04-22T02:22:19;100403.06;;;17.00;53.39
5812;BME280;2932;52.400;9.558;2023-04-22T02:24:45;100398.31;;;17.11;53.03
5812;BME280;2932;52.400;9.558;2023-04-22T02:27:11;100401.47;;;16.99;53.43
5812;BME280;2932;52.400;9.558;2023-04-22T02:29:36;100404.22;;;16.92;53.21
5812;BME280;2932;52.400;9.558;2023-04-22T02:32:01;100403.00;;;16.79;53.61
5812;BME280;2932;52.400;9.558;2023-04-22T02:34:27;100402.22;;;16.89;53.58
5812;BME280;2932;52.400;9.558;2023-04-22T02:36:52;100406.59;;;16.79;53.80
5812;BME280;2932;52.400;9.558;2023-04-22T02:39:17;100408.53;;;16.68;54.18
5812;BME280;2932;52.400;9.558;2023-04-22T02:41:42;100402.19;;;16.82;54.10
5812;BME280;2932;52.400;9.558;2023-04-22T02:44:08;100409.34;;;16.69;54.15
5812;BME280;2932;52.400;9.558;2023-04-22T02:46:33;100403.81;;;16.79;54.14
5812;BME280;2932;52.400;9.558;2023-04-22T02:48:58;100402.59;;;16.73;54.02
5812;BME280;2932;52.400;9.558;2023-04-22T02:51:24;100396.59;;;16.71;54.30
5812;BME280;2932;52.400;9.558;2023-04-22T02:53:49;100398.97;;;16.69;54.39
5812;BME280;2932;52.400;9.558;2023-04-22T02:56:15;100391.78;;;16.68;54.46
5812;BME280;2932;52.400;9.558;2023-04-22T02:58:40;100390.59;;;16.69;54.23
5812;BME280;2932;52.400;9.558;2023-04-22T03:01:05;100393.78;;;16.71;54.35
5812;BME280;2932;52.400;9.558;2023-04-22T03:03:30;100387.63;;;16.37;55.29
5812;BME280;2932;52.400;9.558;2023-04-22T03:05:58;100391.13;;;16.23;55.61
5812;BME280;2932;52.400;9.558;2023-04-22T03:08:24;100387.59;;;16.33;55.28
5812;BME280;2932;52.400;9.558;2023-04-22T03:10:49;100382.81;;;16.30;55.36
5812;BME280;2932;52.400;9.558;2023-04-22T03:13:15;100386.81;;;16.33;55.49
5812;BME280;2932;52.400;9.558;2023-04-22T03:15:40;100381.22;;;16.33;55.42
5812;BME280;2932;52.400;9.558;2023-04-22T03:18:06;100387.19;;;16.31;55.56
5812;BME280;2932;52.400;9.558;2023-04-22T03:20:31;100380.69;;;16.13;55.74
5812;BME280;2932;52.400;9.558;2023-04-22T03:22:57;100368.28;;;16.04;55.92
5812;BME280;2932;52.400;9.558;2023-04-22T03:25:22;100369.16;;;16.18;55.89
5812;BME280;2932;52.400;9.558;2023-04-22T03:27:47;100362.75;;;16.11;55.84
5812;BME280;2932;52.400;9.558;2023-04-22T03:30:13;100363.16;;;16.13;55.82
5812;BME280;2932;52.400;9.558;2023-04-22T03:32:38;100367.94;;;16.12;55.88
5812;BME280;2932;52.400;9.558;2023-04-22T03:35:04;100363.94;;;16.10;55.77
5812;BME280;2932;52.400;9.558;2023-04-22T03:37:29;100367.13;;;16.12;56.15
5812;BME280;2932;52.400;9.558;2023-04-22T03:39:54;100365.19;;;16.19;56.34
5812;BME280;2932;52.400;9.558;2023-04-22T03:42:20;100367.59;;;16.21;55.91
5812;BME280;2932;52.400;9.558;2023-04-22T03:44:45;100367.63;;;16.24;55.70
5812;BME280;2932;52.400;9.558;2023-04-22T03:47:11;100366.34;;;16.15;56.00
5812;BME280;2932;52.400;9.558;2023-04-22T03:49:36;100371.13;;;16.11;55.99
5812;BME280;2932;52.400;9.558;2023-04-22T03:52:01;100366.63;;;15.92;56.54
5812;BME280;2932;52.400;9.558;2023-04-22T03:54:27;100371.53;;;16.16;56.12
5812;BME280;2932;52.400;9.558;2023-04-22T03:56:52;100375.47;;;16.05;56.43
5812;BME280;2932;52.400;9.558;2023-04-22T03:59:17;100374.41;;;16.27;55.72
5812;BME280;2932;52.400;9.558;2023-04-22T04:01:45;100376.06;;;16.39;55.75
5812;BME280;2932;52.400;9.558;2023-04-22T04:04:11;100374.84;;;16.36;55.34
5812;BME280;2932;52.400;9.558;2023-04-22T04:06:36;100390.81;;;16.43;55.17
5812;BME280;2932;52.400;9.558;2023-04-22T04:09:01;100380.59;;;16.64;55.27
5812;BME280;2932;52.400;9.558;2023-04-22T04:11:28;100383.34;;;16.61;55.04
5812;BME280;2932;52.400;9.558;2023-04-22T04:13:53;100380.59;;;16.68;54.95
5812;BME280;2932;52.400;9.558;2023-04-22T04:16:18;100383.00;;;16.66;54.86
5812;BME280;2932;52.400;9.558;2023-04-22T04:18:44;100378.22;;;16.70;54.83
5812;BME280;2932;52.400;9.558;2023-04-22T04:21:09;100388.19;;;16.67;55.18
5812;BME280;2932;52.400;9.558;2023-04-22T04:23:34;100385.28;;;16.53;55.36
5812;BME280;2932;52.400;9.558;2023-04-22T04:26:00;100386.13;;;16.57;55.32
5812;BME280;2932;52.400;9.558;2023-04-22T04:28:27;100381.81;;;16.67;54.70
5812;BME280;2932;52.400;9.558;2023-04-22T04:30:56;100379.03;;;16.71;54.93
5812;BME280;2932;52.400;9.558;2023-04-22T04:33:22;100378.22;;;16.81;54.84
5812;BME280;2932;52.400;9.558;2023-04-22T04:35:47;100378.66;;;16.86;54.73
5812;BME280;2932;52.400;9.558;2023-04-22T04:38:12;100371.44;;;16.82;55.05
5812;BME280;2932;52.400;9.558;2023-04-22T04:40:38;100371.88;;;16.77;54.94
5812;BME280;2932;52.400;9.558;2023-04-22T04:43:03;100367.84;;;16.81;54.79
5812;BME280;2932;52.400;9.558;2023-04-22T04:45:33;100368.25;;;16.80;54.84
5812;BME280;2932;52.400;9.558;2023-04-22T04:47:58;100366.19;;;16.62;55.36
5812;BME280;2932;52.400;9.558;2023-04-22T04:50:26;100358.28;;;16.72;55.19
5812;BME280;2932;52.400;9.558;2023-04-22T04:52:52;100359.72;;;16.48;55.51
5812;BME280;2932;52.400;9.558;2023-04-22T04:55:18;100356.97;;;16.51;55.65
5812;BME280;2932;52.400;9.558;2023-04-22T04:57:44;100356.13;;;16.44;55.81
5812;BME280;2932;52.400;9.558;2023-04-22T05:00:10;100352.53;;;16.47;55.84
5812;BME280;2932;52.400;9.558;2023-04-22T05:02:35;100356.97;;;16.55;55.62
5812;BME280;2932;52.400;9.558;2023-04-22T05:05:01;100360.25;;;16.64;55.58
5812;BME280;2932;52.400;9.558;2023-04-22T05:07:27;100358.16;;;16.50;55.64
5812;BME280;2932;52.400;9.558;2023-04-22T05:09:52;100359.88;;;16.73;55.40
5812;BME280;2932;52.400;9.558;2023-04-22T05:12:18;100363.09;;;16.78;55.57
5812;BME280;2932;52.400;9.558;2023-04-22T05:14:43;100358.28;;;16.86;55.11
5812;BME280;2932;52.400;9.558;2023-04-22T05:17:12;100359.09;;;16.76;55.53
5812;BME280;2932;52.400;9.558;2023-04-22T05:19:38;100353.47;;;16.69;55.78
5812;BME280;2932;52.400;9.558;2023-04-22T05:22:06;100354.97;;;16.55;56.05
5812;BME280;2932;52.400;9.558;2023-04-22T05:24:32;100346.59;;;16.52;56.28
5812;BME280;2932;52.400;9.558;2023-04-22T05:26:57;100345.88;;;16.65;56.00
5812;BME280;2932;52.400;9.558;2023-04-22T05:29:23;100343.81;;;16.59;56.10
5812;BME280;2932;52.400;9.558;2023-04-22T05:31:48;100348.63;;;16.62;56.21
5812;BME280;2932;52.400;9.558;2023-04-22T05:34:13;100353.91;;;16.74;56.16
5812;BME280;2932;52.400;9.558;2023-04-22T05:36:39;100353.09;;;16.77;56.25
5812;BME280;2932;52.400;9.558;2023-04-22T05:39:04;100354.19;;;16.58;56.50
5812;BME280;2932;52.400;9.558;2023-04-22T05:41:30;100351.47;;;16.65;56.25
5812;BME280;2932;52.400;9.558;2023-04-22T05:43:55;100355.44;;;16.64;56.72
5812;BME280;2932;52.400;9.558;2023-04-22T05:46:20;100349.13;;;16.78;56.32
5812;BME280;2932;52.400;9.558;2023-04-22T05:48:46;100358.72;;;16.91;56.49
5812;BME280;2932;52.400;9.558;2023-04-22T05:51:12;100347.16;;;16.96;56.07
5812;BME280;2932;52.400;9.558;2023-04-22T05:53:38;100349.56;;;17.05;55.89
5812;BME280;2932;52.400;9.558;2023-04-22T05:56:03;100349.19;;;17.14;55.70
5812;BME280;2932;52.400;9.558;2023-04-22T05:58:28;100354.38;;;17.29;55.56
5812;BME280;2932;52.400;9.558;2023-04-22T06:00:54;100354.78;;;17.39;55.39
5812;BME280;2932;52.400;9.558;2023-04-22T06:03:19;100355.59;;;17.53;55.00
5812;BME280;2932;52.400;9.558;2023-04-22T06:05:44;100351.19;;;17.59;54.99
5812;BME280;2932;52.400;9.558;2023-04-22T06:08:10;100343.63;;;17.56;55.12
5812;BME280;2932;52.400;9.558;2023-04-22T06:10:35;100342.78;;;17.59;55.11
5812;BME280;2932;52.400;9.558;2023-04-22T06:13:01;100345.22;;;17.75;55.40
5812;BME280;2932;52.400;9.558;2023-04-22T06:15:26;100338.41;;;17.87;55.34
5812;BME280;2932;52.400;9.558;2023-04-22T06:17:51;100341.59;;;17.92;55.23
5812;BME280;2932;52.400;9.558;2023-04-22T06:20:17;100347.16;;;17.99;54.79
5812;BME280;2932;52.400;9.558;2023-04-22T06:22:42;100342.75;;;18.06;55.04
5812;BME280;2932;52.400;9.558;2023-04-22T06:25:07;100345.56;;;18.02;54.65
5812;BME280;2932;52.400;9.558;2023-04-22T06:27:33;100346.72;;;18.15;54.50
5812;BME280;2932;52.400;9.558;2023-04-22T06:29:58;100346.72;;;18.22;54.72
5812;BME280;2932;52.400;9.558;2023-04-22T06:32:23;100341.41;;;18.46;54.40
5812;BME280;2932;52.400;9.558;2023-04-22T06:34:49;100330.25;;;18.39;54.67
5812;BME280;2932;52.400;9.558;2023-04-22T06:37:14;100328.16;;;18.57;53.97
5812;BME280;2932;52.400;9.558;2023-04-22T06:39:39;100322.56;;;18.57;54.54
5812;BME280;2932;52.400;9.558;2023-04-22T06:42:05;100327.72;;;18.73;54.08
5812;BME280;2932;52.400;9.558;2023-04-22T06:44:31;100336.94;;;18.73;54.22
5812;BME280;2932;52.400;9.558;2023-04-22T06:46:56;100316.00;;;18.88;53.62
5812;BME280;2932;52.400;9.558;2023-04-22T06:49:22;100322.81;;;18.87;53.84
5812;BME280;2932;52.400;9.558;2023-04-22T06:51:47;100331.56;;;19.00;53.88
5812;BME280;2932;52.400;9.558;2023-04-22T06:54:12;100330.78;;;18.96;53.86
5812;BME280;2932;52.400;9.558;2023-04-22T06:56:38;100317.94;;;18.98;53.58
5812;BME280;2932;52.400;9.558;2023-04-22T06:59:03;100328.84;;;18.82;53.66
5812;BME280;2932;52.400;9.558;2023-04-22T07:01:28;100335.22;;;18.90;53.76
5812;BME280;2932;52.400;9.558;2023-04-22T07:03:54;100334.00;;;18.94;53.82
5812;BME280;2932;52.400;9.558;2023-04-22T07:06:19;100335.19;;;18.93;53.47
5812;BME280;2932;52.400;9.558;2023-04-22T07:08:45;100332.81;;;18.88;53.98
5812;BME280;2932;52.400;9.558;2023-04-22T07:11:10;100341.06;;;19.17;53.85
5812;BME280;2932;52.400;9.558;2023-04-22T07:13:36;100339.41;;;19.23;53.47
5812;BME280;2932;52.400;9.558;2023-04-22T07:16:01;100326.56;;;19.25;53.54
5812;BME280;2932;52.400;9.558;2023-04-22T07:18:27;100329.69;;;19.35;53.63
5812;BME280;2932;52.400;9.558;2023-04-22T07:20:52;100331.38;;;19.25;53.44
5812;BME280;2932;52.400;9.558;2023-04-22T07:23:18;100320.91;;;19.32;53.73
5812;BME280;2932;52.400;9.558;2023-04-22T07:25:43;100320.53;;;19.27;54.14
5812;BME280;2932;52.400;9.558;2023-04-22T07:28:08;100319.28;;;19.31;54.27
5812;BME280;2932;52.400;9.558;2023-04-22T07:30:34;100319.22;;;19.42;53.80
5812;BME280;2932;52.400;9.558;2023-04-22T07:32:59;100322.00;;;19.46;53.90
5812;BME280;2932;52.400;9.558;2023-04-22T07:35:25;100323.75;;;19.74;53.41
5812;BME280;2932;52.400;9.558;2023-04-22T07:37:52;100317.53;;;19.55;53.84
5812;BME280;2932;52.400;9.558;2023-04-22T07:40:18;100324.53;;;19.78;53.58
5812;BME280;2932;52.400;9.558;2023-04-22T07:42:43;100324.88;;;19.83;53.42
5812;BME280;2932;52.400;9.558;2023-04-22T07:45:09;100321.34;;;20.13;53.22
5812;BME280;2932;52.400;9.558;2023-04-22T07:47:34;100321.81;;;20.42;53.23
5812;BME280;2932;52.400;9.558;2023-04-22T07:49:59;100314.00;;;20.57;52.88
5812;BME280;2932;52.400;9.558;2023-04-22T07:52:25;100317.94;;;20.63;52.30
5812;BME280;2932;52.400;9.558;2023-04-22T07:54:50;100314.94;;;20.77;51.80
5812;BME280;2932;52.400;9.558;2023-04-22T07:57:15;100312.06;;;20.81;51.48
5812;BME280;2932;52.400;9.558;2023-04-22T07:59:41;100310.66;;;21.19;51.00
5812;BME280;2932;52.400;9.558;2023-04-22T08:02:06;100328.09;;;21.38;50.41
5812;BME280;2932;52.400;9.558;2023-04-22T08:04:31;100312.78;;;21.15;50.50
5812;BME280;2932;52.400;9.558;2023-04-22T08:06:56;100319.19;;;21.43;50.78
5812;BME280;2932;52.400;9.558;2023-04-22T08:09:22;100314.19;;;21.54;50.62
5812;BME280;2932;52.400;9.558;2023-04-22T08:11:47;100317.03;;;21.50;50.06
5812;BME280;2932;52.400;9.558;2023-04-22T08:14:12;100308.03;;;21.36;49.83
5812;BME280;2932;52.400;9.558;2023-04-22T08:16:38;100318.00;;;21.40;50.17
5812;BME280;2932;52.400;9.558;2023-04-22T08:19:04;100307.75;;;21.53;50.70
5812;BME280;2932;52.400;9.558;2023-04-22T08:21:29;100309.63;;;21.60;50.27
5812;BME280;2932;52.400;9.558;2023-04-22T08:23:55;100317.28;;;21.59;49.57
5812;BME280;2932;52.400;9.558;2023-04-22T08:26:21;100318.63;;;21.75;48.90
5812;BME280;2932;52.400;9.558;2023-04-22T08:28:46;100302.56;;;21.95;49.00
5812;BME280;2932;52.400;9.558;2023-04-22T08:31:12;100306.59;;;21.94;49.05
5812;BME280;2932;52.400;9.558;2023-04-22T08:33:39;100312.78;;;22.09;48.83
5812;BME280;2932;52.400;9.558;2023-04-22T08:36:04;100313.41;;;21.96;48.99
5812;BME280;2932;52.400;9.558;2023-04-22T08:38:30;100311.69;;;22.03;49.08
5812;BME280;2932;52.400;9.558;2023-04-22T08:40:55;100310.47;;;22.23;48.40
5812;BME280;2932;52.400;9.558;2023-04-22T08:43:24;100315.63;;;22.28;48.70
5812;BME280;2932;52.400;9.558;2023-04-22T08:45:51;100312.78;;;22.28;48.61
5812;BME280;2932;52.400;9.558;2023-04-22T08:48:17;100318.72;;;22.34;48.33
5812;BME280;2932;52.400;9.558;2023-04-22T08:50:43;100309.16;;;22.48;48.55
5812;BME280;2932;52.400;9.558;2023-04-22T08:53:09;100303.63;;;22.80;48.29
5812;BME280;2932;52.400;9.558;2023-04-22T08:55:35;100307.19;;;23.01;47.91
5812;BME280;2932;52.400;9.558;2023-04-22T08:58:01;100310.84;;;23.17;47.54
5812;BME280;2932;52.400;9.558;2023-04-22T09:00:29;100296.09;;;23.26;47.18
5812;BME280;2932;52.400;9.558;2023-04-22T09:02:57;100293.63;;;23.28;46.66
5812;BME280;2932;52.400;9.558;2023-04-22T09:05:25;100298.94;;;23.42;46.56
5812;BME280;2932;52.400;9.558;2023-04-22T09:07:52;100283.34;;;23.54;46.83
5812;BME280;2932;52.400;9.558;2023-04-22T09:10:18;100284.63;;;23.49;46.65
5812;BME280;2932;52.400;9.558;2023-04-22T09:12:45;100281.38;;;23.51;46.89
5812;BME280;2932;52.400;9.558;2023-04-22T09:15:11;100280.03;;;23.39;46.71
5812;BME280;2932;52.400;9.558;2023-04-22T09:17:36;100284.00;;;23.25;47.02
5812;BME280;2932;52.400;9.558;2023-04-22T09:20:05;100279.88;;;23.46;46.83
5812;BME280;2932;52.400;9.558;2023-04-22T09:22:45;100271.47;;;23.43;46.44
5812;BME280;2932;52.400;9.558;2023-04-22T09:25:22;100281.31;;;23.54;46.50
5812;BME280;2932;52.400;9.558;2023-04-22T09:27:55;100280.03;;;23.39;46.28
5812;BME280;2932;52.400;9.558;2023-04-22T09:30:26;100273.88;;;23.44;46.66
5812;BME280;2932;52.400;9.558;2023-04-22T09:32:56;100276.13;;;23.82;46.32
5812;BME280;2932;52.400;9.558;2023-04-22T09:35:25;100272.75;;;24.16;45.21
5812;BME280;2932;52.400;9.558;2023-04-22T09:37:51;100270.38;;;24.56;45.10
5812;BME280;2932;52.400;9.558;2023-04-22T09:40:17;100256.91;;;24.85;43.97
5812;BME280;2932;52.400;9.558;2023-04-22T09:42:48;100246.84;;;24.97;44.02
5812;BME280;2932;52.400;9.558;2023-04-22T09:45:30;100252.03;;;24.86;43.56
5812;BME280;2932;52.400;9.558;2023-04-22T09:47:59;100251.69;;;25.22;43.63
5812;BME280;2932;52.400;9.558;2023-04-22T09:50:25;100248.84;;;25.35;43.16
5812;BME280;2932;52.400;9.558;2023-04-22T09:52:56;100252.88;;;25.59;42.70
5812;BME280;2932;52.400;9.558;2023-04-22T09:55:23;100253.16;;;25.61;42.87
5812;BME280;2932;52.400;9.558;2023-04-22T09:57:51;100252.19;;;25.55;42.77
5812;BME280;2932;52.400;9.558;2023-04-22T10:00:16;100240.88;;;25.89;42.14
5812;BME280;2932;52.400;9.558;2023-04-22T10:02:42;100241.53;;;25.94;42.30
5812;BME280;2932;52.400;9.558;2023-04-22T10:05:08;100238.22;;;25.95;42.39
5812;BME280;2932;52.400;9.558;2023-04-22T10:07:34;100238.59;;;26.06;42.59
5812;BME280;2932;52.400;9.558;2023-04-22T10:10:01;100227.84;;;26.01;42.70
5812;BME280;2932;52.400;9.558;2023-04-22T10:12:27;100225.94;;;26.20;42.03
5812;BME280;2932;52.400;9.558;2023-04-22T10:14:52;100238.22;;;26.17;42.53
5812;BME280;2932;52.400;9.558;2023-04-22T10:17:18;100221.22;;;25.95;42.21
5812;BME280;2932;52.400;9.558;2023-04-22T10:19:46;100223.63;;;26.06;41.85
5812;BME280;2932;52.400;9.558;2023-04-22T10:22:12;100218.31;;;25.86;41.85
5812;BME280;2932;52.400;9.558;2023-04-22T10:24:38;100217.06;;;25.87;41.93
5812;BME280;2932;52.400;9.558;2023-04-22T10:27:06;100212.91;;;25.44;43.34
5812;BME280;2932;52.400;9.558;2023-04-22T10:29:37;100216.06;;;25.46;43.89
5812;BME280;2932;52.400;9.558;2023-04-22T10:34:35;100215.09;;;25.97;43.31
5812;BME280;2932;52.400;9.558;2023-04-22T10:37:09;100219.41;;;26.10;42.41
5812;BME280;2932;52.400;9.558;2023-04-22T10:39:40;100211.28;;;26.43;41.96
5812;BME280;2932;52.400;9.558;2023-04-22T10:42:10;100201.00;;;26.68;41.39
5812;BME280;2932;52.400;9.558;2023-04-22T10:45:02;100197.97;;;27.02;41.22
5812;BME280;2932;52.400;9.558;2023-04-22T10:47:33;100196.28;;;27.14;41.00
5812;BME280;2932;52.400;9.558;2023-04-22T10:52:39;100192.13;;;26.97;41.10
5812;BME280;2932;52.400;9.558;2023-04-22T10:55:05;100190.56;;;26.65;39.96
5812;BME280;2932;52.400;9.558;2023-04-22T10:57:34;100201.97;;;26.74;40.00
5812;BME280;2932;52.400;9.558;2023-04-22T11:00:27;100177.56;;;26.95;39.79
5812;BME280;2932;52.400;9.558;2023-04-22T11:03:06;100178.75;;;27.34;39.96
5812;BME280;2932;52.400;9.558;2023-04-22T11:05:32;100181.78;;;27.76;39.95
5812;BME280;2932;52.400;9.558;2023-04-22T11:08:19;100181.47;;;27.83;39.67
5812;BME280;2932;52.400;9.558;2023-04-22T11:10:49;100174.66;;;27.99;40.12
5812;BME280;2932;52.400;9.558;2023-04-22T11:13:17;100174.34;;;27.51;40.02
5812;BME280;2932;52.400;9.558;2023-04-22T11:15:48;100169.94;;;27.41;39.48
5812;BME280;2932;52.400;9.558;2023-04-22T11:18:19;100167.56;;;27.67;39.21
5812;BME280;2932;52.400;9.558;2023-04-22T11:20:45;100160.94;;;27.70;38.98
5812;BME280;2932;52.400;9.558;2023-04-22T11:23:26;100158.06;;;27.97;39.34
5812;BME280;2932;52.400;9.558;2023-04-22T11:26:05;100160.28;;;27.93;39.28
5812;BME280;2932;52.400;9.558;2023-04-22T11:28:30;100154.41;;;28.06;38.44
5812;BME280;2932;52.400;9.558;2023-04-22T11:31:04;100150.25;;;28.16;38.54
5812;BME280;2932;52.400;9.558;2023-04-22T11:33:32;100142.53;;;28.26;38.47
5812;BME280;2932;52.400;9.558;2023-04-22T11:35:57;100143.13;;;28.39;38.79
5812;BME280;2932;52.400;9.558;2023-04-22T11:38:23;100141.53;;;28.38;38.57
5812;BME280;2932;52.400;9.558;2023-04-22T11:40:48;100137.78;;;28.23;38.74
5812;BME280;2932;52.400;9.558;2023-04-22T11:43:13;100147.47;;;27.98;38.74
5812;BME280;2932;52.400;9.558;2023-04-22T11:45:39;100127.38;;;28.01;39.48
5812;BME280;2932;52.400;9.558;2023-04-22T11:48:06;100121.75;;;27.92;39.07
5812;BME280;2932;52.400;9.558;2023-04-22T11:50:34;100131.25;;;27.71;39.54
5812;BME280;2932;52.400;9.558;2023-04-22T11:53:20;100131.09;;;27.74;39.79
5812;BME280;2932;52.400;9.558;2023-04-22T11:55:49;100125.94;;;28.06;39.34
5812;BME280;2932;52.400;9.558;2023-04-22T11:58:24;100137.28;;;28.33;39.48
5812;BME280;2932;52.400;9.558;2023-04-22T12:00:52;100130.34;;;28.16;39.43
5812;BME280;2932;52.400;9.558;2023-04-22T12:03:23;100122.53;;;27.93;40.17
5812;BME280;2932;52.400;9.558;2023-04-22T12:05:52;100113.47;;;28.03;40.27
5812;BME280;2932;52.400;9.558;2023-04-22T12:08:22;100126.31;;;27.89;40.23
5812;BME280;2932;52.400;9.558;2023-04-22T12:10:51;100095.69;;;27.84;40.76
5812;BME280;2932;52.400;9.558;2023-04-22T12:13:28;100111.34;;;27.71;40.63
5812;BME280;2932;52.400;9.558;2023-04-22T12:16:05;100105.63;;;27.98;40.23
5812;BME280;2932;52.400;9.558;2023-04-22T12:18:38;100103.41;;;27.93;40.06
5812;BME280;2932;52.400;9.558;2023-04-22T12:21:08;100107.00;;;28.03;40.35
5812;BME280;2932;52.400;9.558;2023-04-22T12:23:47;100099.22;;;28.12;40.27
5812;BME280;2932;52.400;9.558;2023-04-22T12:26:14;100099.22;;;28.21;40.56
5812;BME280;2932;52.400;9.558;2023-04-22T12:28:41;100088.44;;;28.35;40.20
5812;BME280;2932;52.400;9.558;2023-04-22T12:31:08;100093.88;;;28.47;40.33
5812;BME280;2932;52.400;9.558;2023-04-22T12:33:34;100091.50;;;28.46;40.69
5812;BME280;2932;52.400;9.558;2023-04-22T12:36:00;100082.31;;;28.51;40.24
5812;BME280;2932;52.400;9.558;2023-04-22T12:38:25;100099.44;;;28.42;41.02
5812;BME280;2932;52.400;9.558;2023-04-22T12:40:53;100093.50;;;27.79;40.33
5812;BME280;2932;52.400;9.558;2023-04-22T12:43:18;100086.25;;;27.60;41.00
5812;BME280;2932;52.400;9.558;2023-04-22T12:45:44;100085.44;;;27.69;40.77
5812;BME280;2932;52.400;9.558;2023-04-22T12:48:09;100083.38;;;27.78;41.01
5812;BME280;2932;52.400;9.558;2023-04-22T12:50:34;100075.94;;;28.32;40.72
5812;BME280;2932;52.400;9.558;2023-04-22T12:53:00;100078.09;;;29.18;39.24
5812;BME280;2932;52.400;9.558;2023-04-22T12:55:25;100080.03;;;29.50;38.67
5812;BME280;2932;52.400;9.558;2023-04-22T12:57:51;100070.59;;;30.03;38.56
5812;BME280;2932;52.400;9.558;2023-04-22T13:00:17;100066.75;;;29.92;38.19
5812;BME280;2932;52.400;9.558;2023-04-22T13:02:44;100069.88;;;30.08;37.27
5812;BME280;2932;52.400;9.558;2023-04-22T13:05:09;100069.69;;;29.97;36.14
5812;BME280;2932;52.400;9.558;2023-04-22T13:07:36;100073.41;;;30.33;35.77
5812;BME280;2932;52.400;9.558;2023-04-22T13:10:02;100070.81;;;29.17;36.42
5812;BME280;2932;52.400;9.558;2023-04-22T13:12:27;100048.34;;;28.95;36.93